Time;durP1;ratioP1;P1;durP2;ratioP2;P2;SDS_P1;SDS_P2;PMS_P1;PMS_P2;Temp;Humidity;BMP_temperature;BMP_pressure;BME280_temperature;BME280_humidity;BME280_pressure;Samples;Min_cycle;Max_cycle;Signal;HPM_P1;HPM_P2
2022/05/20 00:00:41;;;;;;;10.77;4.33;;;;;;;22.52;69.05;101037.66;4915978;29;20483;-70
2022/05/20 00:03:12;;;;;;;8.63;4.07;;;;;;;22.56;69.08;101029.13;4914693;29;20209;-69
2022/05/20 00:05:40;;;;;;;13.77;4.73;;;;;;;22.54;69.15;101026.63;4921169;29;20228;-69
2022/05/20 00:08:08;;;;;;;7.77;4.17;;;;;;;22.48;69.51;101020.22;4934237;29;20246;-69
2022/05/20 00:10:36;;;;;;;7.67;4.07;;;;;;;22.48;69.70;101022.09;4931016;29;20232;-70
2022/05/20 00:13:05;;;;;;;10.80;4.63;;;;;;;22.44;70.05;101023.56;4914368;29;20244;-69
2022/05/20 00:15:33;;;;;;;10.63;4.73;;;;;;;22.44;70.04;101020.84;4920585;29;20234;-69
2022/05/20 00:18:02;;;;;;;6.60;4.67;;;;;;;22.45;70.02;101014.41;4933427;29;20259;-69
2022/05/20 00:20:34;;;;;;;8.43;4.10;;;;;;;22.46;70.10;101016.91;4915590;29;20304;-69
2022/05/20 00:23:07;;;;;;;9.70;4.73;;;;;;;22.41;69.72;101010.47;4914775;29;20209;-69
2022/05/20 00:25:47;;;;;;;10.00;4.10;;;;;;;22.41;69.96;101011.31;4914253;29;20216;-70
2022/05/20 00:28:19;;;;;;;10.73;4.73;;;;;;;22.44;69.72;101010.88;4896815;29;20497;-69
2022/05/20 00:30:48;;;;;;;8.17;4.53;;;;;;;22.45;69.90;101011.69;4896129;29;20241;-69
2022/05/20 00:33:16;;;;;;;13.17;4.43;;;;;;;22.45;69.90;101020.66;4895406;29;20339;-69
2022/05/20 00:35:45;;;;;;;10.17;4.30;;;;;;;22.44;70.12;101026.25;4896099;29;20253;-69
2022/05/20 00:38:13;;;;;;;6.17;4.17;;;;;;;22.44;69.69;101020.84;4896446;29;20668;-68
2022/05/20 00:40:41;;;;;;;9.87;4.50;;;;;;;22.41;70.07;101015.88;4913242;29;20219;-68
2022/05/20 00:43:16;;;;;;;9.03;4.70;;;;;;;22.43;69.92;101019.19;4914197;29;20239;-69
2022/05/20 00:45:45;;;;;;;10.03;4.43;;;;;;;22.42;69.79;101017.56;4915068;29;20671;-69
2022/05/20 00:48:13;;;;;;;6.67;3.90;;;;;;;22.39;70.19;101034.19;4914901;29;20725;-69
2022/05/20 00:50:47;;;;;;;9.97;4.80;;;;;;;22.38;70.11;101017.13;4914543;29;20248;-69
2022/05/20 00:53:19;;;;;;;10.23;4.70;;;;;;;22.33;70.32;101029.63;4913858;29;20276;-69
2022/05/20 00:55:51;;;;;;;8.53;4.57;;;;;;;22.29;70.84;101033.78;4914730;29;20284;-69
2022/05/20 00:58:21;;;;;;;7.87;4.83;;;;;;;22.27;71.15;101036.69;4919918;29;20578;-69
2022/05/20 01:00:56;;;;;;;8.37;4.23;;;;;;;22.27;71.23;101041.25;4917092;29;20283;-69
2022/05/20 01:03:28;;;;;;;11.30;4.27;;;;;;;22.29;70.72;101050.81;4914078;29;20212;-69
2022/05/20 01:05:59;;;;;;;11.67;4.90;;;;;;;22.31;70.78;101066.81;4914702;29;20197;-69
2022/05/20 01:08:31;;;;;;;8.80;4.60;;;;;;;22.36;69.98;101083.22;4914489;29;20264;-69
2022/05/20 01:10:59;;;;;;;7.20;4.43;;;;;;;22.39;70.32;101077.41;4914052;29;20213;-70
2022/05/20 01:13:31;;;;;;;9.00;4.03;;;;;;;22.37;69.74;101052.47;4913444;29;20236;-70
2022/05/20 01:16:02;;;;;;;8.93;4.57;;;;;;;22.29;70.82;101029.22;4913270;29;20256;-69
2022/05/20 01:18:35;;;;;;;9.27;4.10;;;;;;;22.14;71.32;101023.22;4919562;29;20761;-69
2022/05/20 01:21:04;;;;;;;10.27;4.73;;;;;;;22.04;71.50;101031.75;4913127;29;20213;-69
2022/05/20 01:23:35;;;;;;;7.67;4.70;;;;;;;22.05;71.86;101028.00;4911874;29;20689;-69
2022/05/20 01:26:06;;;;;;;11.37;4.57;;;;;;;22.04;72.16;101015.53;4914046;29;20201;-69
2022/05/20 01:28:37;;;;;;;11.00;5.03;;;;;;;21.86;73.48;101007.22;4912917;29;20209;-69
2022/05/20 01:31:12;;;;;;;8.57;4.90;;;;;;;21.71;74.36;101002.06;4912192;29;20801;-69
2022/05/20 01:33:43;;;;;;;10.17;5.37;;;;;;;21.69;74.62;101000.59;4912287;29;20335;-69
2022/05/20 01:36:13;;;;;;;12.70;5.80;;;;;;;21.67;76.09;100998.09;4913401;29;20292;-69
2022/05/20 01:38:54;;;;;;;11.50;6.13;;;;;;;21.66;76.51;101006.41;4913059;29;20220;-69
2022/05/20 01:41:32;;;;;;;11.60;6.23;;;;;;;21.59;77.56;101024.47;4895477;29;20190;-70
2022/05/20 01:44:08;;;;;;;11.63;5.90;;;;;;;21.50;79.49;101049.97;4912280;29;20222;-69
2022/05/20 01:46:42;;;;;;;9.23;6.13;;;;;;;21.54;78.94;101089.03;4913285;29;20291;-70
2022/05/20 01:49:21;;;;;;;13.77;6.33;;;;;;;21.71;77.91;101106.50;4912644;29;20220;-70
2022/05/20 01:51:52;;;;;;;13.00;6.53;;;;;;;21.75;78.11;101080.72;4912708;29;20231;-70
2022/05/20 01:54:27;;;;;;;12.67;7.97;;;;;;;21.70;79.56;101051.66;4911076;29;20217;-70
2022/05/20 01:57:03;;;;;;;9.23;7.10;;;;;;;21.61;80.97;101034.03;4912913;29;20289;-70
2022/05/20 01:59:36;;;;;;;12.97;7.43;;;;;;;21.52;81.38;101042.53;4907019;29;20263;-70
2022/05/20 02:02:08;;;;;;;10.00;6.80;;;;;;;21.44;82.24;101029.22;4911889;29;20205;-70
2022/05/20 02:04:51;;;;;;;11.03;6.43;;;;;;;21.44;81.45;101024.66;4919665;29;20267;-70
2022/05/20 02:07:25;;;;;;;13.93;7.67;;;;;;;21.43;81.87;101022.16;4932314;29;20239;-70
2022/05/20 02:10:00;;;;;;;14.10;7.17;;;;;;;21.29;84.60;101007.81;4933629;29;20215;-69
2022/05/20 02:12:31;;;;;;;9.67;7.50;;;;;;;21.22;85.06;101006.97;4914284;29;20259;-69
2022/05/20 02:15:02;;;;;;;13.90;7.57;;;;;;;21.23;84.66;100990.59;4913156;29;20209;-70
2022/05/20 02:17:36;;;;;;;10.90;7.53;;;;;;;21.20;84.25;100996.38;4913359;29;20213;-69
2022/05/20 02:20:09;;;;;;;13.27;7.93;;;;;;;21.14;85.18;100991.78;4914348;29;20584;-69
2022/05/20 02:22:42;;;;;;;12.13;7.90;;;;;;;21.03;86.17;100998.59;4913473;29;20348;-70
2022/05/20 02:25:16;;;;;;;16.40;8.03;;;;;;;21.11;84.91;100999.47;4913806;29;20216;-69
2022/05/20 02:27:48;;;;;;;13.80;9.40;;;;;;;21.09;85.45;101002.38;4913917;29;20209;-69
2022/05/20 02:30:19;;;;;;;14.43;8.30;;;;;;;20.99;86.18;101008.16;4914311;29;20235;-69
2022/05/20 02:32:52;;;;;;;15.93;9.77;;;;;;;21.00;86.30;101006.28;4913230;29;20307;-69
2022/05/20 02:35:20;;;;;;;18.93;8.73;;;;;;;21.12;84.96;101003.81;4913442;29;20201;-69
2022/05/20 02:37:47;;;;;;;13.83;8.67;;;;;;;21.14;85.05;101002.56;4914920;29;20303;-69
2022/05/20 02:40:21;;;;;;;16.30;9.37;;;;;;;21.12;85.82;100988.47;4917843;29;20212;-69
2022/05/20 02:42:49;;;;;;;13.27;9.50;;;;;;;21.07;86.89;100990.13;4916473;29;20573;-69
2022/05/20 02:45:18;;;;;;;13.77;9.13;;;;;;;21.03;86.57;100984.28;4917394;29;20287;-69
2022/05/20 02:47:45;;;;;;;14.63;10.20;;;;;;;21.02;86.90;100988.03;4917332;29;20228;-69
2022/05/20 02:50:13;;;;;;;15.13;11.40;;;;;;;21.01;86.89;100992.59;4916201;29;20225;-70
2022/05/20 02:52:41;;;;;;;16.73;10.50;;;;;;;21.06;85.59;101008.16;4914472;29;20238;-69
2022/05/20 02:55:09;;;;;;;16.37;10.33;;;;;;;21.16;86.22;101019.38;4906381;29;20681;-69
2022/05/20 02:57:39;;;;;;;16.10;11.03;;;;;;;21.22;86.59;101010.50;4915218;29;20303;-69
2022/05/20 03:06:00;;;;;;;20.43;14.13;;;;;;;21.32;85.66;100994.75;4876269;29;20221;-69
2022/05/20 03:08:28;;;;;;;20.17;14.83;;;;;;;21.30;85.35;100996.81;4907615;29;20221;-69
2022/05/20 03:10:56;;;;;;;26.23;15.60;;;;;;;21.22;87.56;100988.94;4915107;29;20224;-69
2022/05/20 03:13:35;;;;;;;19.27;13.60;;;;;;;21.24;86.99;101004.91;4914537;29;20678;-69
2022/05/20 03:16:03;;;;;;;19.97;15.03;;;;;;;21.29;86.63;101010.50;4915285;29;20208;-69
2022/05/20 03:18:31;;;;;;;19.60;14.63;;;;;;;21.33;86.05;101004.50;4914889;29;20568;-69
2022/05/20 03:20:59;;;;;;;22.03;15.80;;;;;;;21.39;85.89;101003.69;4915494;29;20310;-71
2022/05/20 03:23:27;;;;;;;19.80;15.20;;;;;;;21.45;85.61;100993.13;4914470;29;20205;-70
2022/05/20 03:25:55;;;;;;;21.73;15.03;;;;;;;21.48;85.49;100996.22;4914491;29;20307;-72
2022/05/20 03:28:23;;;;;;;22.60;14.40;;;;;;;21.49;85.93;100992.47;4914745;29;20655;-70
2022/05/20 03:30:52;;;;;;;19.57;15.27;;;;;;;21.39;86.84;100989.34;4914766;29;20223;-69
2022/05/20 03:33:20;;;;;;;21.57;15.57;;;;;;;21.29;86.83;100986.22;4914719;29;20244;-70
2022/05/20 03:35:48;;;;;;;17.60;14.47;;;;;;;21.28;85.59;100988.13;4915393;29;20216;-70
2022/05/20 03:38:16;;;;;;;20.10;16.07;;;;;;;21.31;86.77;100979.59;4915795;29;20216;-70
2022/05/20 03:40:43;;;;;;;22.13;15.23;;;;;;;21.36;86.42;100979.84;4915893;29;20247;-70
2022/05/20 03:43:11;;;;;;;23.20;17.87;;;;;;;21.42;85.54;100980.88;4915094;29;20316;-69
2022/05/20 03:45:42;;;;;;;26.57;19.17;;;;;;;21.43;84.71;100984.41;4915324;29;20226;-69
2022/05/20 03:48:11;;;;;;;28.87;22.03;;;;;;;21.40;85.01;100985.63;4910102;29;20255;-69
2022/05/20 03:50:39;;;;;;;27.67;20.77;;;;;;;21.43;84.55;100976.31;4915324;29;20577;-69
2022/05/20 03:53:07;;;;;;;24.47;19.83;;;;;;;21.44;84.67;100986.06;4925824;29;20700;-69
2022/05/20 03:55:34;;;;;;;24.17;17.53;;;;;;;21.45;84.31;100990.41;4934315;29;20299;-69
2022/05/20 03:58:02;;;;;;;25.33;17.37;;;;;;;21.50;83.64;100971.72;4928870;29;20567;-70
2022/05/20 04:00:30;;;;;;;21.27;16.77;;;;;;;21.48;83.70;100976.50;4915405;29;20208;-70
2022/05/20 04:02:57;;;;;;;23.13;14.90;;;;;;;21.46;84.07;100975.91;4914416;29;20205;-69
2022/05/20 04:05:27;;;;;;;23.33;16.53;;;;;;;21.45;83.88;100971.53;4915438;29;20667;-70
2022/05/20 04:07:54;;;;;;;24.10;17.63;;;;;;;21.47;83.82;100985.63;4915207;29;20552;-70
2022/05/20 04:10:23;;;;;;;24.83;17.37;;;;;;;21.45;84.02;100985.03;4922428;29;20304;-69
2022/05/20 04:12:50;;;;;;;27.53;18.67;;;;;;;21.45;84.76;100983.16;4931218;29;20315;-69
2022/05/20 04:15:18;;;;;;;21.13;17.20;;;;;;;21.44;84.21;100984.19;4933736;29;20216;-69
2022/05/20 04:17:47;;;;;;;23.20;17.67;;;;;;;21.44;84.48;100986.06;4933991;29;20303;-69
2022/05/20 04:20:14;;;;;;;23.47;18.47;;;;;;;21.45;84.23;100987.72;4933711;29;20311;-69
2022/05/20 04:22:46;;;;;;;25.03;18.33;;;;;;;21.48;84.57;100990.00;4933283;29;20211;-70
2022/05/20 04:25:13;;;;;;;23.13;18.13;;;;;;;21.47;84.47;100985.63;4933404;29;20416;-70
2022/05/20 04:27:43;;;;;;;25.57;18.20;;;;;;;21.44;84.39;100986.91;4915763;29;20295;-69
2022/05/20 04:30:13;;;;;;;24.57;18.73;;;;;;;21.44;84.25;100991.47;4915182;29;20213;-69
2022/05/20 04:32:41;;;;;;;30.40;18.90;;;;;;;21.42;84.62;100988.13;4914206;29;20244;-69
2022/05/20 04:35:17;;;;;;;26.50;18.47;;;;;;;21.43;84.28;100990.63;4914697;29;20226;-70
2022/05/20 04:37:48;;;;;;;27.00;18.30;;;;;;;21.47;84.02;100996.41;4915473;29;20640;-69
2022/05/20 04:40:16;;;;;;;25.17;19.17;;;;;;;21.49;84.03;101005.16;4914273;29;20575;-70
2022/05/20 04:48:29;;;;;;;26.03;18.30;;;;;;;21.53;83.08;101044.19;4874587;29;20218;-69
2022/05/20 04:50:56;;;;;;;26.17;18.80;;;;;;;21.53;82.55;101054.97;4874791;29;20234;-70
2022/05/20 04:56:16;;;;;;;25.60;21.10;;;;;;;21.43;84.04;101054.53;4914583;29;20209;-69
2022/05/20 04:58:43;;;;;;;25.73;19.87;;;;;;;21.38;84.50;101047.88;4913992;29;20243;-70
2022/05/20 05:01:12;;;;;;;25.17;19.43;;;;;;;21.38;84.38;101041.66;4913382;29;20654;-69
2022/05/20 05:03:41;;;;;;;26.10;18.57;;;;;;;21.43;84.08;101049.97;4913752;29;20209;-69
2022/05/20 05:06:09;;;;;;;22.10;18.53;;;;;;;21.33;84.74;101036.88;4914626;29;20213;-70
2022/05/20 05:08:38;;;;;;;23.87;18.10;;;;;;;21.35;84.34;101032.13;4914647;29;20221;-69
2022/05/20 05:11:05;;;;;;;28.23;18.13;;;;;;;21.37;84.53;101030.03;4913854;29;20307;-69
2022/05/20 05:13:33;;;;;;;21.73;16.63;;;;;;;21.36;84.57;101031.09;4913626;29;20304;-69
2022/05/20 05:16:06;;;;;;;24.50;17.30;;;;;;;21.38;84.41;101029.00;4914522;29;20674;-70
2022/05/20 05:18:36;;;;;;;22.90;16.53;;;;;;;21.38;84.79;101026.28;4914423;29;20209;-70
2022/05/20 05:21:04;;;;;;;23.93;17.47;;;;;;;21.39;84.79;101027.97;4913940;29;20252;-70
2022/05/20 05:23:32;;;;;;;19.90;15.87;;;;;;;21.39;84.35;101024.44;4913448;29;20300;-70
2022/05/20 05:26:01;;;;;;;24.27;16.23;;;;;;;21.42;84.63;101012.41;4913234;29;20208;-70
2022/05/20 05:28:30;;;;;;;21.90;16.63;;;;;;;21.46;84.27;101008.28;4913992;29;20225;-70
2022/05/20 05:30:58;;;;;;;21.10;15.53;;;;;;;21.49;83.50;101002.44;4913668;29;20217;-70
2022/05/20 05:33:26;;;;;;;19.63;14.70;;;;;;;21.51;83.85;100997.69;4912331;29;20237;-70
2022/05/20 05:35:54;;;;;;;24.30;15.63;;;;;;;21.55;83.51;101004.34;4913408;29;20217;-70
2022/05/20 05:38:24;;;;;;;23.67;14.97;;;;;;;21.51;83.64;101003.06;4913774;29;20221;-70
2022/05/20 05:40:52;;;;;;;18.13;14.43;;;;;;;21.52;84.11;101004.75;4913907;29;20212;-70
2022/05/20 05:43:21;;;;;;;26.00;14.77;;;;;;;21.52;84.09;101004.75;4912930;29;20299;-70
2022/05/20 05:45:49;;;;;;;21.80;14.70;;;;;;;21.56;84.18;101006.81;4913508;29;20205;-70
2022/05/20 05:48:17;;;;;;;20.37;14.43;;;;;;;21.58;84.00;100993.09;4913510;29;20307;-70
2022/05/20 05:50:46;;;;;;;18.13;15.07;;;;;;;21.55;84.40;100982.75;4913971;29;20280;-70
2022/05/20 05:53:15;;;;;;;21.17;13.93;;;;;;;21.52;84.83;100988.56;4913156;29;20217;-69
2022/05/20 05:55:45;;;;;;;17.43;13.13;;;;;;;21.50;84.42;100977.97;4919719;29;20216;-69
2022/05/20 05:58:14;;;;;;;17.80;13.17;;;;;;;21.56;83.61;100976.28;4912606;29;20299;-69
2022/05/20 06:00:44;;;;;;;20.90;13.87;;;;;;;21.59;83.13;100984.81;4912424;29;20754;-69
2022/05/20 06:03:15;;;;;;;19.70;12.07;;;;;;;21.50;83.92;100974.44;4912959;29;20295;-70
2022/05/20 06:05:44;;;;;;;19.67;12.10;;;;;;;21.60;82.65;100985.66;4913541;29;20276;-68
2022/05/20 06:08:12;;;;;;;18.20;12.07;;;;;;;21.59;82.66;100986.69;4912864;29;20227;-69
2022/05/20 06:10:40;;;;;;;22.60;12.80;;;;;;;21.60;83.26;100993.75;4913499;29;20217;-69
2022/05/20 06:13:23;;;;;;;19.37;12.53;;;;;;;21.71;83.09;100993.13;4915720;29;20610;-70
2022/05/20 06:15:55;;;;;;;18.03;13.00;;;;;;;21.81;82.50;100981.91;4917010;29;20217;-70
2022/05/20 06:18:23;;;;;;;20.57;13.50;;;;;;;21.87;81.80;100986.47;4898366;29;20208;-69
2022/05/20 06:20:51;;;;;;;18.50;13.60;;;;;;;21.88;81.52;100988.97;4919986;29;20287;-68
2022/05/20 06:23:20;;;;;;;21.27;12.77;;;;;;;21.91;81.17;101002.03;4935756;29;20720;-69
2022/05/20 06:25:47;;;;;;;19.60;13.87;;;;;;;21.89;81.53;101000.59;4919295;29;20213;-69
2022/05/20 06:28:35;;;;;;;18.03;12.90;;;;;;;21.93;81.21;101004.50;4917286;29;20223;-69
2022/05/20 06:31:07;;;;;;;17.87;12.83;;;;;;;21.99;80.74;101012.63;4917832;29;20669;-70
2022/05/20 06:33:34;;;;;;;19.63;12.97;;;;;;;22.04;80.20;101009.31;4914539;29;20617;-69
2022/05/20 06:41:35;;;;;;;16.33;12.63;;;;;;;22.07;81.45;101012.44;4915529;29;20327;-68
2022/05/20 06:44:03;;;;;;;17.10;12.60;;;;;;;22.18;80.02;100996.59;4915507;29;20219;-69
2022/05/20 06:46:33;;;;;;;16.17;13.63;;;;;;;22.09;79.16;101004.94;4916588;29;20642;-68
2022/05/20 06:49:01;;;;;;;20.37;13.13;;;;;;;21.98;81.23;100997.50;4915184;29;20212;-68
2022/05/20 06:51:33;;;;;;;17.17;13.57;;;;;;;22.04;80.49;101001.22;4915788;29;20703;-69
2022/05/20 06:54:03;;;;;;;14.63;12.57;;;;;;;22.02;80.00;100998.72;4914803;29;20254;-68
2022/05/20 06:56:31;;;;;;;15.00;12.23;;;;;;;22.07;80.08;100998.09;4916427;29;20247;-70
2022/05/20 06:59:00;;;;;;;18.37;13.37;;;;;;;22.13;78.96;101003.47;4915640;29;20212;-69
2022/05/20 07:01:28;;;;;;;16.00;12.13;;;;;;;22.10;79.00;101003.91;4914953;29;20223;-68
2022/05/20 07:03:58;;;;;;;16.67;11.63;;;;;;;22.10;79.24;100995.78;4915919;29;20244;-69
2022/05/20 07:06:30;;;;;;;18.77;13.20;;;;;;;22.16;79.06;101001.41;4915418;29;20545;-68
2022/05/20 07:08:57;;;;;;;19.60;12.33;;;;;;;22.19;79.48;100990.16;4915950;29;20218;-68
2022/05/20 07:11:26;;;;;;;19.80;13.37;;;;;;;22.24;79.37;100988.50;4916527;29;20209;-69
2022/05/20 07:13:56;;;;;;;19.43;14.70;;;;;;;22.25;79.19;100987.47;4915861;29;20229;-68
2022/05/20 07:16:25;;;;;;;17.37;13.30;;;;;;;22.29;79.31;100980.59;4916204;29;20304;-69
2022/05/20 07:18:53;;;;;;;14.90;11.87;;;;;;;22.37;78.52;100977.66;4916440;29;20687;-69
2022/05/20 07:21:23;;;;;;;14.43;11.00;;;;;;;22.38;77.14;100978.47;4915059;29;20213;-69
2022/05/20 07:23:50;;;;;;;19.13;12.57;;;;;;;22.41;77.74;100972.66;4915534;29;20217;-69
2022/05/20 07:26:20;;;;;;;16.70;12.33;;;;;;;22.39;77.72;100962.06;4915339;29;20264;-69
2022/05/20 07:28:55;;;;;;;19.43;12.17;;;;;;;22.41;78.78;100956.44;4915890;29;20577;-68
2022/05/20 07:31:24;;;;;;;18.20;11.70;;;;;;;22.43;79.28;100955.16;4916125;29;20221;-69
2022/05/20 07:33:52;;;;;;;23.67;13.27;;;;;;;22.57;79.36;100952.44;4913169;29;20323;-69
2022/05/20 07:36:21;;;;;;;18.00;12.40;;;;;;;22.72;78.89;100952.97;4925228;29;20398;-69
2022/05/20 07:38:50;;;;;;;20.80;10.80;;;;;;;22.75;78.29;100947.16;4918414;29;20238;-69
2022/05/20 07:41:19;;;;;;;16.63;11.87;;;;;;;22.73;78.74;100947.34;4915609;29;20240;-69
2022/05/20 07:43:47;;;;;;;14.82;10.65;;;;;;;22.75;79.49;100950.69;4915628;29;20670;-69
2022/05/20 07:46:15;;;;;;;14.67;9.70;;;;;;;22.83;78.16;100942.34;4915993;29;20247;-69
2022/05/20 07:48:42;;;;;;;15.60;10.13;;;;;;;22.95;76.64;100941.66;4923317;29;20244;-69
2022/05/20 07:51:13;;;;;;;12.73;9.27;;;;;;;23.04;76.75;100934.94;4914983;29;20223;-69
2022/05/20 07:53:47;;;;;;;13.63;9.90;;;;;;;23.20;76.54;100937.09;4914507;29;20538;-70
2022/05/20 07:56:21;;;;;;;14.90;9.90;;;;;;;23.29;76.78;100943.91;4915647;29;20456;-69
2022/05/20 07:58:52;;;;;;;15.43;10.10;;;;;;;23.28;75.88;100939.53;4915983;29;20217;-69
2022/05/20 08:01:23;;;;;;;15.18;9.13;;;;;;;23.34;74.99;100938.66;4915407;29;20240;-69
2022/05/20 08:06:40;;;;;;;14.13;9.05;;;;;;;23.61;72.25;100932.00;4915398;29;20201;-69
2022/05/20 08:09:09;;;;;;;15.02;9.68;;;;;;;23.69;71.45;100930.03;4914776;29;20217;-69
2022/05/20 08:11:37;;;;;;;15.00;10.63;;;;;;;23.81;70.86;100933.69;4915127;29;20709;-70
2022/05/20 08:14:05;;;;;;;15.30;11.00;;;;;;;23.80;71.50;100932.03;4914029;29;20252;-69
2022/05/20 08:16:33;;;;;;;17.30;12.23;;;;;;;23.89;71.19;100930.69;4915055;29;20243;-69
2022/05/20 08:19:01;;;;;;;16.20;11.65;;;;;;;23.96;70.40;100909.75;4915404;29;20224;-69
2022/05/20 08:21:28;;;;;;;24.00;13.30;;;;;;;24.12;70.39;100911.03;4915376;29;20689;-69
2022/05/20 08:23:56;;;;;;;22.95;13.00;;;;;;;24.15;71.03;100910.59;4914271;29;20252;-69
2022/05/20 08:26:25;;;;;;;23.63;15.27;;;;;;;24.36;69.81;100910.97;4914033;29;20217;-69
2022/05/20 08:28:53;;;;;;;21.05;14.85;;;;;;;24.51;68.58;100904.34;4914722;29;20303;-69
2022/05/20 08:31:22;;;;;;;19.50;15.00;;;;;;;24.54;68.42;100910.09;4915230;29;20922;-70
2022/05/20 08:33:50;;;;;;;20.67;13.55;;;;;;;24.50;69.09;100905.38;4914330;29;20267;-69
2022/05/20 08:36:18;;;;;;;23.92;15.23;;;;;;;24.57;69.35;100903.41;4913778;29;20300;-69
2022/05/20 08:38:51;;;;;;;25.42;17.00;;;;;;;24.74;68.28;100905.25;4913408;29;20347;-69
2022/05/20 08:41:28;;;;;;;28.73;16.33;;;;;;;24.89;66.64;100896.66;4914331;29;20241;-69
2022/05/20 08:43:56;;;;;;;26.52;16.80;;;;;;;24.83;67.72;100880.50;4912641;29;20219;-70
2022/05/20 08:46:24;;;;;;;28.55;17.23;;;;;;;24.99;66.79;100880.69;4913559;29;20223;-70
2022/05/20 08:48:55;;;;;;;22.90;14.45;;;;;;;24.94;66.93;100880.59;4914377;29;20243;-70
2022/05/20 08:51:25;;;;;;;28.77;16.15;;;;;;;24.77;68.60;100876.84;4913539;29;20240;-68
2022/05/20 08:53:52;;;;;;;18.88;14.50;;;;;;;24.91;68.69;100875.59;4913548;29;20208;-69
2022/05/20 08:56:22;;;;;;;28.63;16.48;;;;;;;24.93;68.33;100876.22;4914401;29;20291;-70
2022/05/20 08:58:56;;;;;;;23.83;14.45;;;;;;;25.11;68.05;100867.16;4930774;29;20248;-69
2022/05/20 09:01:29;;;;;;;25.73;16.17;;;;;;;25.23;67.46;100875.31;4912882;29;20272;-69
2022/05/20 09:03:57;;;;;;;23.88;16.38;;;;;;;25.44;66.16;100867.41;4912885;29;20209;-70
2022/05/20 09:06:26;;;;;;;24.38;17.77;;;;;;;25.70;64.29;100855.25;4914629;29;20682;-69
2022/05/20 09:09:08;;;;;;;26.85;15.07;;;;;;;25.61;65.78;100856.69;4914430;29;20216;-69
2022/05/20 09:11:37;;;;;;;22.83;15.20;;;;;;;25.65;64.67;100852.44;4914054;29;20224;-69
2022/05/20 09:17:09;;;;;;;19.02;11.68;;;;;;;25.91;63.17;100855.72;4914148;29;20809;-70
2022/05/20 09:19:38;;;;;;;19.58;10.40;;;;;;;26.10;59.72;100849.88;4914469;29;20398;-70
2022/05/20 09:22:07;;;;;;;18.33;8.95;;;;;;;26.12;61.00;100852.34;4913349;29;20212;-70
2022/05/20 09:24:40;;;;;;;20.02;11.63;;;;;;;26.36;59.81;100845.78;4912607;29;20217;-70
2022/05/20 09:27:11;;;;;;;24.10;9.57;;;;;;;26.29;61.01;100839.69;4906073;29;20313;-70
2022/05/20 09:29:45;;;;;;;22.25;8.98;;;;;;;26.19;59.92;100837.56;4914005;29;20196;-70
2022/05/20 09:32:24;;;;;;;15.38;8.23;;;;;;;26.13;60.82;100837.66;4912823;29;20320;-70
2022/05/20 09:35:02;;;;;;;15.13;7.70;;;;;;;26.20;61.55;100822.06;4913506;29;20323;-70
2022/05/20 09:37:32;;;;;;;15.15;7.55;;;;;;;26.26;60.25;100814.84;4913610;29;20244;-70
2022/05/20 09:40:20;;;;;;;11.82;6.75;;;;;;;26.30;59.95;100822.28;4913710;29;20283;-70
2022/05/20 09:43:10;;;;;;;14.30;7.80;;;;;;;26.31;58.45;100813.06;4905216;29;20245;-69
2022/05/20 09:45:45;;;;;;;14.93;7.43;;;;;;;26.38;57.65;100807.50;4913796;29;20247;-69
2022/05/20 09:48:20;;;;;;;17.00;6.57;;;;;;;26.47;58.34;100806.84;4917726;29;20243;-70
2022/05/20 09:51:03;;;;;;;17.73;7.80;;;;;;;26.99;55.96;100806.66;4917310;29;20634;-70
2022/05/20 09:53:36;;;;;;;19.00;7.22;;;;;;;26.89;56.92;100798.31;4929508;29;20215;-69
2022/05/20 09:56:22;;;;;;;9.85;6.75;;;;;;;26.92;57.21;100789.66;4936923;29;20220;-69
2022/05/20 09:59:03;;;;;;;12.18;7.05;;;;;;;27.02;56.16;100786.28;4936913;29;20220;-69
2022/05/20 10:01:33;;;;;;;15.23;7.00;;;;;;;27.11;56.59;100785.59;4933932;29;20926;-69
2022/05/20 10:04:06;;;;;;;12.82;7.00;;;;;;;27.35;55.36;100767.97;4916570;29;20327;-70
2022/05/20 10:06:38;;;;;;;14.00;7.13;;;;;;;27.83;53.42;100766.44;4917596;29;20213;-69
2022/05/20 10:09:16;;;;;;;11.63;6.45;;;;;;;27.76;54.08;100774.00;4917252;29;20296;-69
2022/05/20 10:11:55;;;;;;;12.60;6.55;;;;;;;27.62;54.48;100772.72;4917294;29;20291;-69
2022/05/20 10:14:28;;;;;;;9.18;6.25;;;;;;;27.51;54.46;100773.66;4916467;29;20232;-69
2022/05/20 10:17:02;;;;;;;11.30;6.03;;;;;;;27.59;55.09;100782.25;4929260;29;20589;-69
2022/05/20 10:19:41;;;;;;;11.45;6.70;;;;;;;27.77;54.79;100762.03;4936408;29;20215;-70
2022/05/20 10:22:22;;;;;;;12.70;6.32;;;;;;;27.82;53.72;100742.19;4919124;29;20674;-70
2022/05/20 10:25:00;;;;;;;9.40;5.90;;;;;;;27.98;54.00;100747.53;4916867;29;20272;-69
2022/05/20 10:27:44;;;;;;;11.10;6.10;;;;;;;28.43;51.77;100751.84;4916905;29;20701;-69
2022/05/20 10:33:06;;;;;;;14.18;6.07;;;;;;;28.15;52.21;100744.72;4915600;29;20247;-70
2022/05/20 10:35:51;;;;;;;10.68;5.82;;;;;;;28.06;51.47;100744.34;4916613;29;20213;-69
2022/05/20 10:38:35;;;;;;;9.25;5.63;;;;;;;28.28;51.36;100732.59;4916384;29;20681;-69
2022/05/20 10:41:09;;;;;;;10.15;5.70;;;;;;;28.74;49.61;100729.19;4916381;29;20563;-69
2022/05/20 10:49:41;;;;;;;12.50;5.35;;;;;;;29.22;48.62;100713.66;4916160;29;20197;-69
2022/05/20 10:52:26;;;;;;;7.97;5.57;;;;;;;29.04;48.53;100704.00;4915606;29;20197;-69
2022/05/20 10:55:19;;;;;;;9.18;5.10;;;;;;;28.88;49.26;100690.53;4916156;29;20197;-70
2022/05/20 10:58:24;;;;;;;9.68;5.35;;;;;;;28.73;49.34;100672.97;4914477;29;20343;-69
2022/05/20 11:00:55;;;;;;;9.65;5.70;;;;;;;28.71;48.26;100653.31;4887946;29;20301;-69
2022/05/20 11:03:48;;;;;;;10.95;5.22;;;;;;;28.38;49.66;100626.34;4900729;29;20213;-69
2022/05/20 11:06:54;;;;;;;11.18;5.75;;;;;;;28.14;50.58;100622.31;4915944;29;20563;-69
2022/05/20 11:09:34;;;;;;;9.02;5.70;;;;;;;28.19;50.29;100615.03;4915928;29;20307;-70
2022/05/20 11:12:03;;;;;;;12.23;5.60;;;;;;;28.24;49.76;100606.03;4916072;29;20211;-70
2022/05/20 11:15:03;;;;;;;12.27;5.47;;;;;;;27.99;50.42;100579.38;4922385;29;20332;-69
2022/05/20 11:18:03;;;;;;;13.30;6.43;;;;;;;27.82;51.52;100546.81;4911008;29;20348;-69
2022/05/20 11:21:01;;;;;;;9.50;5.60;;;;;;;28.11;49.78;100535.59;4912222;29;20827;-69
2022/05/20 11:23:52;;;;;;;14.32;6.13;;;;;;;28.02;51.04;100517.00;4913435;29;20322;-69
2022/05/20 11:26:37;;;;;;;15.25;5.70;;;;;;;28.12;51.88;100524.44;4915846;29;20236;-69
2022/05/20 11:29:28;;;;;;;15.80;6.38;;;;;;;28.52;50.62;100532.06;4915618;29;20671;-69
2022/05/20 11:32:01;;;;;;;11.82;5.43;;;;;;;29.15;48.46;100539.16;4914095;29;20585;-69
2022/05/20 11:34:47;;;;;;;8.48;5.63;;;;;;;29.21;50.06;100537.25;4915837;29;20241;-69
2022/05/20 11:37:31;;;;;;;7.25;5.53;;;;;;;29.74;46.68;100540.63;4915672;29;20317;-69
2022/05/20 11:40:44;;;;;;;15.25;5.47;;;;;;;29.79;46.22;100548.84;4915911;29;20213;-68
2022/05/20 11:43:45;;;;;;;9.60;4.95;;;;;;;29.88;45.03;100552.69;4915734;29;20209;-69
2022/05/20 11:46:26;;;;;;;11.57;4.93;;;;;;;29.79;44.26;100535.19;4913928;29;20309;-69
2022/05/20 11:49:26;;;;;;;13.68;5.00;;;;;;;29.46;45.98;100531.91;4919574;29;20658;-69
2022/05/20 11:52:29;;;;;;;10.00;5.07;;;;;;;29.48;46.33;100526.13;4914353;29;20237;-69
2022/05/20 11:55:02;;;;;;;13.07;5.25;;;;;;;29.33;45.92;100535.09;4915568;29;20650;-69
2022/05/20 11:57:38;;;;;;;9.63;4.80;;;;;;;29.62;45.17;100527.25;4915265;29;20332;-69
2022/05/20 12:00:09;;;;;;;9.07;4.82;;;;;;;29.51;45.79;100520.97;4915186;29;20276;-69
2022/05/20 12:02:42;;;;;;;7.82;4.47;;;;;;;29.50;45.14;100513.84;4914823;29;20655;-68
2022/05/20 12:05:13;;;;;;;11.07;4.72;;;;;;;29.71;43.87;100497.47;4915417;29;20223;-68
2022/05/20 12:07:41;;;;;;;10.60;4.45;;;;;;;29.48;44.07;100505.09;4914128;29;20209;-69
2022/05/20 12:10:39;;;;;;;7.97;4.35;;;;;;;29.28;44.20;100499.59;4915114;29;20224;-71
2022/05/20 12:13:14;;;;;;;11.27;4.82;;;;;;;29.33;43.60;100507.78;4915683;29;20240;-69